Terminal Aerodrome Forecast
Issued by NWS

Home | Current Version | Previous Version | Text Only | Print | Product List | Glossary On
Versions: 1 2 3 4 5 6 7 8 9 10 11 12 13 14 15 16 17 18 19
000
FTUS41 KBOX 311129
TAFACK
TAF
KACK 311129Z 3112/0112 05004KT P6SM BKN050
     FM311300 06007KT P6SM BKN060
     FM311600 06012KT P6SM BKN050
     FM010500 05016KT P6SM -RA OVC025
     FM010900 04017G25KT 3SM -RA BR OVC050=

USA.gov is the U.S. government's official web portal to all federal, state and local government web resources and services.